createdAt,value
2023-03-17T00:01:55.053Z,94.80
2023-03-17T00:04:26.256Z,97.00
2023-03-17T00:06:54.583Z,95.00
2023-03-17T00:09:22.326Z,95.40
2023-03-17T00:16:50.024Z,95.20
2023-03-17T00:19:37.165Z,98.00
2023-03-17T00:24:33.612Z,96.30
2023-03-17T00:31:57.582Z,97.90
2023-03-17T00:34:24.611Z,97.20
2023-03-17T00:46:41.494Z,97.10
2023-03-17T00:54:11.919Z,97.60
2023-03-17T00:56:40.744Z,95.10
2023-03-17T00:59:26.018Z,97.00
2023-03-17T01:01:52.980Z,96.30
2023-03-17T01:04:20.063Z,95.50
2023-03-17T01:06:48.226Z,95.30
2023-03-17T01:09:18.578Z,95.40
2023-03-17T01:11:45.685Z,96.20
2023-03-17T01:14:12.842Z,97.80
2023-03-17T01:16:39.805Z,97.80
2023-03-17T01:19:06.928Z,96.10
2023-03-17T01:21:33.826Z,98.10
2023-03-17T01:24:00.669Z,97.70
2023-03-17T01:28:54.817Z,98.40
2023-03-17T01:33:51.336Z,98.80
2023-03-17T01:36:18.324Z,97.90
2023-03-17T01:38:48.581Z,98.50
2023-03-17T01:41:15.459Z,98.40
2023-03-17T01:43:42.621Z,99.10
2023-03-17T01:46:29.541Z,98.20
2023-03-17T01:48:56.220Z,98.80
2023-03-17T01:51:47.188Z,97.50
2023-03-17T01:54:24.257Z,97.70
2023-03-17T01:56:53.696Z,98.20
2023-03-17T01:59:25.872Z,99.30
2023-03-17T02:02:02.349Z,97.20
2023-03-17T02:04:29.711Z,98.70
2023-03-17T02:06:58.809Z,99.90
2023-03-17T02:09:27.684Z,99.90
2023-03-17T02:11:55.667Z,99.90
2023-03-17T02:14:22.514Z,99.90
2023-03-17T02:16:49.464Z,99.90
2023-03-17T02:19:17.123Z,99.90
2023-03-17T02:21:56.868Z,99.90
2023-03-17T02:24:27.532Z,99.90
2023-03-17T02:26:56.106Z,99.90
2023-03-17T02:29:23.846Z,99.90
2023-03-17T02:31:50.981Z,99.90
2023-03-17T02:34:18.303Z,99.90
2023-03-17T02:39:13.768Z,99.90
2023-03-17T02:41:40.525Z,99.90
2023-03-17T02:44:07.330Z,99.90
2023-03-17T02:46:34.092Z,99.90
2023-03-17T02:49:02.055Z,99.90
2023-03-17T02:56:24.090Z,99.90
2023-03-17T03:03:45.938Z,99.90
2023-03-17T03:06:13.386Z,99.90
2023-03-17T03:08:40.642Z,99.90
2023-03-17T03:13:34.540Z,99.90
2023-03-17T03:18:28.579Z,99.90
2023-03-17T03:20:55.389Z,99.90
2023-03-17T03:23:22.198Z,99.90
2023-03-17T03:25:49.022Z,99.90
2023-03-17T03:30:44.713Z,99.90
2023-03-17T03:33:13.344Z,99.90
2023-03-17T03:38:08.355Z,99.90
2023-03-17T03:40:36.945Z,99.90
2023-03-17T03:43:16.313Z,99.90
2023-03-17T03:50:43.002Z,99.90
2023-03-17T04:00:32.305Z,99.90
2023-03-17T04:05:26.790Z,99.90
2023-03-17T04:10:21.854Z,99.90
2023-03-17T04:12:48.589Z,99.90
2023-03-17T04:15:17.220Z,99.90
2023-03-17T04:17:44.465Z,99.90
2023-03-17T04:20:13.162Z,99.90
2023-03-17T04:22:41.793Z,99.90
2023-03-17T04:25:10.685Z,99.90
2023-03-17T04:27:37.947Z,99.90
2023-03-17T04:30:06.178Z,99.90
2023-03-17T04:35:00.678Z,99.90
2023-03-17T04:44:50.341Z,99.90
2023-03-17T04:47:17.232Z,99.90
2023-03-17T04:52:11.571Z,99.90
2023-03-17T04:59:32.859Z,99.90
2023-03-17T05:01:59.756Z,99.90
2023-03-17T05:04:31.767Z,99.90
2023-03-17T05:06:59.657Z,99.90
2023-03-17T05:09:28.729Z,99.90
2023-03-17T05:14:23.687Z,99.90
2023-03-17T05:16:51.154Z,99.90
2023-03-17T05:19:18.508Z,99.90
2023-03-17T05:21:45.707Z,99.90
2023-03-17T05:24:12.647Z,99.90
2023-03-17T05:31:34.571Z,99.90
2023-03-17T05:41:23.680Z,99.90
2023-03-17T05:43:50.749Z,99.90
2023-03-17T05:48:47.364Z,99.90
2023-03-17T05:51:14.601Z,99.90
2023-03-17T05:56:09.384Z,99.90
2023-03-17T05:58:36.606Z,99.90
2023-03-17T06:01:03.450Z,99.90
2023-03-17T06:08:25.234Z,99.90
2023-03-17T06:15:51.836Z,97.40
2023-03-17T06:23:14.238Z,93.40
2023-03-17T06:25:41.635Z,92.70
2023-03-17T06:28:08.887Z,86.70
2023-03-17T06:30:40.381Z,85.90
2023-03-17T06:33:08.271Z,80.10
2023-03-17T06:35:36.299Z,82.40
2023-03-17T06:40:32.139Z,83.40
2023-03-17T06:42:59.556Z,79.50
2023-03-17T06:45:26.851Z,80.30
2023-03-17T06:50:21.433Z,71.00
2023-03-17T06:52:48.256Z,65.90
2023-03-17T07:00:12.686Z,71.60
2023-03-17T07:10:04.246Z,67.50
2023-03-17T07:14:59.086Z,61.80
2023-03-17T07:17:26.167Z,60.10
2023-03-17T07:22:20.517Z,55.50
2023-03-17T07:24:49.241Z,57.90
2023-03-17T07:27:16.972Z,58.60
2023-03-17T07:32:11.402Z,54.20
2023-03-17T07:34:38.265Z,60.20
2023-03-17T07:37:06.996Z,57.60
2023-03-17T07:42:01.557Z,55.30
2023-03-17T07:44:28.941Z,56.40
2023-03-17T07:49:40.033Z,56.20
2023-03-17T07:52:08.603Z,52.70
2023-03-17T07:57:04.574Z,58.10
2023-03-17T07:59:31.767Z,53.20
2023-03-17T08:06:57.266Z,52.50
2023-03-17T08:09:24.385Z,49.10
2023-03-17T08:16:46.022Z,46.60
2023-03-17T08:26:36.264Z,50.60
2023-03-17T08:29:05.151Z,46.90
2023-03-17T08:31:34.138Z,49.10
2023-03-17T08:34:02.701Z,48.20
2023-03-17T08:41:26.958Z,46.20
2023-03-17T08:43:54.915Z,45.90
2023-03-17T08:46:30.095Z,45.30
2023-03-17T08:48:58.155Z,45.10
2023-03-17T08:51:27.235Z,46.50
2023-03-17T08:53:55.071Z,45.20
2023-03-17T08:56:22.749Z,46.70
2023-03-17T08:58:50.777Z,47.10
2023-03-17T09:01:19.109Z,45.40
2023-03-17T09:03:46.817Z,46.60
2023-03-17T09:06:14.401Z,48.00
2023-03-17T09:08:45.161Z,49.20
2023-03-17T09:11:14.919Z,47.00
2023-03-17T09:23:34.496Z,49.90
2023-03-17T09:26:02.323Z,50.00
2023-03-17T09:31:03.761Z,52.00
2023-03-17T09:33:31.099Z,49.40
2023-03-17T09:35:58.027Z,52.00
2023-03-17T09:38:26.428Z,56.10
2023-03-17T09:43:41.794Z,48.20
2023-03-17T09:46:43.788Z,49.10
2023-03-17T09:49:21.168Z,49.70
2023-03-17T09:51:49.503Z,48.80
2023-03-17T09:56:51.388Z,46.50
2023-03-17T09:59:34.929Z,43.00
2023-03-17T10:07:07.034Z,46.30
2023-03-17T10:09:43.101Z,44.80
2023-03-17T10:12:24.793Z,41.60
2023-03-17T10:15:04.635Z,42.90
2023-03-17T10:17:40.767Z,41.30
2023-03-17T10:20:09.190Z,42.40
2023-03-17T10:23:01.111Z,40.90
2023-03-17T10:25:34.011Z,41.10
2023-03-17T10:28:12.388Z,41.70
2023-03-17T10:30:39.837Z,39.80
2023-03-17T10:35:37.574Z,38.20
2023-03-17T10:38:20.303Z,39.10
2023-03-17T10:40:58.287Z,38.00
2023-03-17T10:43:30.554Z,36.60
2023-03-17T10:46:04.013Z,36.80
2023-03-17T10:48:36.101Z,36.80
2023-03-17T10:51:09.919Z,38.20
2023-03-17T10:53:43.031Z,35.10
2023-03-17T10:56:27.442Z,35.40
2023-03-17T10:58:55.598Z,37.10
2023-03-17T11:01:36.594Z,36.10
2023-03-17T11:06:41.486Z,34.30
2023-03-17T11:09:11.069Z,33.70
2023-03-17T11:11:47.627Z,32.40
2023-03-17T11:14:18.689Z,31.80
2023-03-17T11:17:01.638Z,33.00
2023-03-17T11:22:00.159Z,34.40
2023-03-17T11:24:33.629Z,32.30
2023-03-17T11:27:07.212Z,32.20
2023-03-17T11:29:52.583Z,31.40
2023-03-17T11:37:26.412Z,31.00
2023-03-17T11:39:56.573Z,31.70
2023-03-17T11:42:25.966Z,32.00
2023-03-17T11:45:13.190Z,30.40
2023-03-17T11:47:54.948Z,30.10
2023-03-17T11:53:06.525Z,30.60
2023-03-17T11:55:36.394Z,30.90
2023-03-17T11:58:10.609Z,33.60
2023-03-17T12:00:45.881Z,32.80
2023-03-17T12:03:21.665Z,32.90
2023-03-17T12:05:52.492Z,34.30
2023-03-17T12:08:42.280Z,32.60
2023-03-17T12:11:17.198Z,35.20
2023-03-17T12:14:05.226Z,33.70
2023-03-17T12:16:48.125Z,34.50
2023-03-17T12:19:29.882Z,36.00
2023-03-17T12:22:05.698Z,33.50
2023-03-17T12:27:01.918Z,35.30
2023-03-17T12:29:51.609Z,34.00
2023-03-17T12:32:55.695Z,34.80
2023-03-17T12:35:32.228Z,34.60
2023-03-17T12:38:02.789Z,32.80
2023-03-17T12:40:35.871Z,35.10
2023-03-17T12:43:02.794Z,35.30
2023-03-17T12:45:50.858Z,34.80
2023-03-17T12:48:32.964Z,34.80
2023-03-17T12:51:31.432Z,34.80
2023-03-17T12:56:34.681Z,37.20
2023-03-17T12:59:05.808Z,34.90
2023-03-17T13:01:54.351Z,34.00
2023-03-17T13:04:40.997Z,34.40
2023-03-17T13:07:22.194Z,35.40
2023-03-17T13:12:44.515Z,34.70
2023-03-17T13:15:23.589Z,35.00
2023-03-17T13:18:10.803Z,33.20
2023-03-17T13:20:41.925Z,35.20
2023-03-17T13:23:16.071Z,36.80
2023-03-17T13:28:12.327Z,37.80
2023-03-17T13:33:09.795Z,36.00
2023-03-17T13:35:42.959Z,39.00
2023-03-17T13:38:46.776Z,36.00
2023-03-17T13:41:13.594Z,36.80
2023-03-17T13:44:01.737Z,36.40
2023-03-17T13:46:39.195Z,40.20
2023-03-17T13:49:28.591Z,36.60
2023-03-17T13:52:01.694Z,37.80
2023-03-17T13:57:20.312Z,37.70
2023-03-17T14:00:21.124Z,38.60
2023-03-17T14:02:49.971Z,42.30
2023-03-17T14:05:24.937Z,39.50
2023-03-17T14:07:58.841Z,40.60
2023-03-17T14:10:29.124Z,44.30
2023-03-17T14:13:07.089Z,44.10
2023-03-17T14:16:08.100Z,39.90
2023-03-17T14:18:38.886Z,41.20
2023-03-17T14:21:11.736Z,43.20
2023-03-17T14:23:38.657Z,45.40
2023-03-17T14:28:35.588Z,41.70
2023-03-17T14:31:05.550Z,45.50
2023-03-17T14:33:38.348Z,43.50
2023-03-17T14:36:08.883Z,47.00
2023-03-17T14:38:46.085Z,46.90
2023-03-17T14:41:22.712Z,42.60
2023-03-17T14:43:52.328Z,42.60
2023-03-17T14:46:30.044Z,42.50
2023-03-17T14:49:20.972Z,43.00
2023-03-17T14:51:57.299Z,46.70
2023-03-17T14:54:28.782Z,43.50
2023-03-17T14:57:02.148Z,47.20
2023-03-17T14:59:38.814Z,42.50
2023-03-17T15:02:21.776Z,42.70
2023-03-17T15:05:03.214Z,44.30
2023-03-17T15:07:39.932Z,43.00
2023-03-17T15:10:17.585Z,46.00
2023-03-17T15:12:48.905Z,43.70
2023-03-17T15:15:32.525Z,43.80
2023-03-17T15:18:03.836Z,43.80
2023-03-17T15:23:03.230Z,46.90
2023-03-17T15:25:33.149Z,43.60
2023-03-17T15:28:00.277Z,46.60
2023-03-17T15:30:37.367Z,42.70
2023-03-17T15:33:16.940Z,47.50
2023-03-17T15:38:12.219Z,43.90
2023-03-17T15:50:31.464Z,45.80
2023-03-17T15:55:31.411Z,46.90
2023-03-17T15:57:59.407Z,47.70
2023-03-17T16:00:29.712Z,48.20
2023-03-17T16:03:02.193Z,49.90
2023-03-17T16:05:34.379Z,52.50
2023-03-17T16:15:28.402Z,49.00
2023-03-17T16:43:33.173Z,53.40
2023-03-17T16:55:55.144Z,54.10
2023-03-17T17:18:11.396Z,56.90
2023-03-17T17:28:05.676Z,80.80
2023-03-17T17:38:01.052Z,60.50
2023-03-17T17:40:28.830Z,60.00
2023-03-17T17:42:55.710Z,60.60
2023-03-17T17:45:22.579Z,60.70
2023-03-17T17:50:24.394Z,60.90
2023-03-17T17:52:51.386Z,61.40
2023-03-17T17:55:18.615Z,61.60
2023-03-17T17:57:45.623Z,62.40
2023-03-17T18:00:15.458Z,62.00
2023-03-17T18:05:10.206Z,63.00
2023-03-17T18:07:37.086Z,62.40
2023-03-17T18:10:05.230Z,62.30
2023-03-17T18:17:27.330Z,63.80
2023-03-17T18:19:55.010Z,64.10
2023-03-17T18:22:22.644Z,64.10
2023-03-17T18:24:49.982Z,63.50
2023-03-17T18:32:12.628Z,68.90
2023-03-17T18:34:45.956Z,70.90
2023-03-17T18:37:13.951Z,64.30
2023-03-17T18:44:36.903Z,64.20
2023-03-17T18:47:04.044Z,66.00
2023-03-17T18:54:28.070Z,67.40
2023-03-17T18:56:55.989Z,64.90
2023-03-17T18:59:22.901Z,65.00
2023-03-17T19:01:49.762Z,65.30
2023-03-17T19:06:43.892Z,65.20
2023-03-17T19:09:11.108Z,65.10
2023-03-17T19:11:39.427Z,65.50
2023-03-17T19:14:08.380Z,65.30
2023-03-17T19:16:35.851Z,65.60
2023-03-17T19:19:03.180Z,65.20
2023-03-17T19:21:31.052Z,64.90
2023-03-17T19:24:00.687Z,65.30
2023-03-17T19:26:27.772Z,65.10
2023-03-17T19:28:56.330Z,65.30
2023-03-17T19:33:52.041Z,65.30
2023-03-17T19:46:11.979Z,64.70
2023-03-17T19:51:08.084Z,64.40
2023-03-17T19:53:35.276Z,64.00
2023-03-17T20:00:56.831Z,64.50
2023-03-17T20:03:26.067Z,64.50
2023-03-17T20:10:55.723Z,63.90
2023-03-17T20:13:22.599Z,63.90
2023-03-17T20:20:51.221Z,63.50
2023-03-17T20:28:13.105Z,63.20
2023-03-17T20:30:40.727Z,62.90
2023-03-17T20:33:09.861Z,63.70
2023-03-17T20:35:39.444Z,63.80
2023-03-17T20:38:07.492Z,64.20
2023-03-17T21:00:20.512Z,65.10
2023-03-17T21:02:50.233Z,64.10
2023-03-17T21:05:20.734Z,64.40
2023-03-17T21:07:49.078Z,63.70
2023-03-17T21:10:17.434Z,63.90
2023-03-17T21:12:45.022Z,63.60
2023-03-17T21:15:13.014Z,64.40
2023-03-17T21:20:12.086Z,65.70
2023-03-17T21:25:08.920Z,64.70
2023-03-17T21:27:40.372Z,65.50
2023-03-17T21:30:12.076Z,64.60
2023-03-17T21:35:08.027Z,65.90
2023-03-17T21:37:35.279Z,66.90
2023-03-17T21:54:47.869Z,67.70
2023-03-17T21:57:14.710Z,68.20
2023-03-17T21:59:42.347Z,68.30
2023-03-17T22:02:12.467Z,68.10
2023-03-17T22:04:39.744Z,66.60
2023-03-17T22:12:01.793Z,68.40
2023-03-17T22:16:57.216Z,75.40
2023-03-17T22:26:49.604Z,69.20
2023-03-17T22:31:43.788Z,66.50
2023-03-17T22:34:10.826Z,66.90
2023-03-17T22:36:38.004Z,66.60
2023-03-17T22:39:06.961Z,66.30
2023-03-17T22:44:01.108Z,67.00
2023-03-17T22:48:55.474Z,67.60
2023-03-17T22:51:27.010Z,66.70
2023-03-17T22:53:54.294Z,67.90
2023-03-17T22:56:21.572Z,67.60
2023-03-17T23:01:17.217Z,67.90
2023-03-17T23:03:44.911Z,66.20
2023-03-17T23:06:13.268Z,69.40
2023-03-17T23:08:42.783Z,66.90
2023-03-17T23:11:23.171Z,66.40
2023-03-17T23:13:51.399Z,69.30
2023-03-17T23:16:19.034Z,67.10
2023-03-17T23:18:47.145Z,73.50
2023-03-17T23:21:33.038Z,66.40
2023-03-17T23:24:00.723Z,66.70
2023-03-17T23:33:51.298Z,65.60
2023-03-17T23:36:21.996Z,73.10
2023-03-17T23:56:11.446Z,66.00
